sensor_id;sensor_type;location;lat;lon;timestamp;P1;durP1;ratioP1;P2;durP2;ratioP2
76566;SDS011;65428;53.194;6.132;2023-02-11T00:02:20;23.60;;;6.97;;
76566;SDS011;65428;53.194;6.132;2023-02-11T00:04:45;27.50;;;6.90;;
76566;SDS011;65428;53.194;6.132;2023-02-11T00:07:11;25.92;;;7.53;;
76566;SDS011;65428;53.194;6.132;2023-02-11T00:09:36;25.83;;;7.30;;
76566;SDS011;65428;53.194;6.132;2023-02-11T00:12:02;29.00;;;7.72;;
76566;SDS011;65428;53.194;6.132;2023-02-11T00:14:28;24.85;;;6.95;;
76566;SDS011;65428;53.194;6.132;2023-02-11T00:16:54;26.70;;;7.63;;
76566;SDS011;65428;53.194;6.132;2023-02-11T00:19:19;26.30;;;7.63;;
76566;SDS011;65428;53.194;6.132;2023-02-11T00:21:45;31.30;;;7.55;;
76566;SDS011;65428;53.194;6.132;2023-02-11T00:24:10;28.07;;;7.37;;
76566;SDS011;65428;53.194;6.132;2023-02-11T00:26:36;28.00;;;7.80;;
76566;SDS011;65428;53.194;6.132;2023-02-11T00:29:02;26.05;;;8.02;;
76566;SDS011;65428;53.194;6.132;2023-02-11T00:31:29;28.30;;;8.50;;
76566;SDS011;65428;53.194;6.132;2023-02-11T00:33:55;27.35;;;8.18;;
76566;SDS011;65428;53.194;6.132;2023-02-11T00:36:24;27.83;;;8.00;;
76566;SDS011;65428;53.194;6.132;2023-02-11T00:38:52;29.17;;;8.07;;
76566;SDS011;65428;53.194;6.132;2023-02-11T00:41:18;26.48;;;7.90;;
76566;SDS011;65428;53.194;6.132;2023-02-11T00:43:44;24.48;;;7.88;;
76566;SDS011;65428;53.194;6.132;2023-02-11T00:46:10;29.10;;;8.90;;
76566;SDS011;65428;53.194;6.132;2023-02-11T00:48:36;29.17;;;9.63;;
76566;SDS011;65428;53.194;6.132;2023-02-11T00:51:02;24.98;;;8.30;;
76566;SDS011;65428;53.194;6.132;2023-02-11T00:53:29;27.77;;;9.07;;
76566;SDS011;65428;53.194;6.132;2023-02-11T00:55:55;27.10;;;9.40;;
76566;SDS011;65428;53.194;6.132;2023-02-11T00:58:20;27.90;;;8.95;;
76566;SDS011;65428;53.194;6.132;2023-02-11T01:00:47;30.88;;;9.55;;
76566;SDS011;65428;53.194;6.132;2023-02-11T01:03:13;29.52;;;9.57;;
76566;SDS011;65428;53.194;6.132;2023-02-11T01:05:39;31.75;;;10.70;;
76566;SDS011;65428;53.194;6.132;2023-02-11T01:08:04;31.95;;;10.88;;
76566;SDS011;65428;53.194;6.132;2023-02-11T01:10:31;27.33;;;10.25;;
76566;SDS011;65428;53.194;6.132;2023-02-11T01:12:57;26.95;;;10.57;;
76566;SDS011;65428;53.194;6.132;2023-02-11T01:15:22;32.75;;;11.45;;
76566;SDS011;65428;53.194;6.132;2023-02-11T01:17:48;30.30;;;11.38;;
76566;SDS011;65428;53.194;6.132;2023-02-11T01:20:15;25.95;;;11.10;;
76566;SDS011;65428;53.194;6.132;2023-02-11T01:22:44;25.27;;;11.02;;
76566;SDS011;65428;53.194;6.132;2023-02-11T01:25:10;27.98;;;11.20;;
76566;SDS011;65428;53.194;6.132;2023-02-11T01:27:36;29.55;;;11.95;;
76566;SDS011;65428;53.194;6.132;2023-02-11T01:30:04;25.35;;;12.48;;
76566;SDS011;65428;53.194;6.132;2023-02-11T01:32:30;33.22;;;13.07;;
76566;SDS011;65428;53.194;6.132;2023-02-11T01:34:56;28.02;;;12.40;;
76566;SDS011;65428;53.194;6.132;2023-02-11T01:37:22;31.52;;;13.20;;
76566;SDS011;65428;53.194;6.132;2023-02-11T01:39:47;33.27;;;14.07;;
76566;SDS011;65428;53.194;6.132;2023-02-11T01:42:19;29.23;;;13.57;;
76566;SDS011;65428;53.194;6.132;2023-02-11T01:44:50;29.02;;;13.75;;
76566;SDS011;65428;53.194;6.132;2023-02-11T01:47:17;33.15;;;13.80;;
76566;SDS011;65428;53.194;6.132;2023-02-11T01:49:46;34.20;;;14.20;;
76566;SDS011;65428;53.194;6.132;2023-02-11T01:52:31;32.42;;;14.13;;
76566;SDS011;65428;53.194;6.132;2023-02-11T01:55:04;29.77;;;14.65;;
76566;SDS011;65428;53.194;6.132;2023-02-11T01:57:53;34.80;;;14.50;;
76566;SDS011;65428;53.194;6.132;2023-02-11T02:00:21;32.78;;;14.23;;
76566;SDS011;65428;53.194;6.132;2023-02-11T02:03:02;33.42;;;15.52;;
76566;SDS011;65428;53.194;6.132;2023-02-11T02:05:35;30.75;;;14.93;;
76566;SDS011;65428;53.194;6.132;2023-02-11T02:11:35;31.13;;;14.98;;
76566;SDS011;65428;53.194;6.132;2023-02-11T02:14:01;35.92;;;16.17;;
76566;SDS011;65428;53.194;6.132;2023-02-11T02:16:33;35.10;;;16.30;;
76566;SDS011;65428;53.194;6.132;2023-02-11T02:25:18;30.40;;;16.23;;
76566;SDS011;65428;53.194;6.132;2023-02-11T02:31:05;35.37;;;16.90;;
76566;SDS011;65428;53.194;6.132;2023-02-11T02:33:48;34.50;;;18.13;;
76566;SDS011;65428;53.194;6.132;2023-02-11T02:36:33;35.25;;;18.15;;
76566;SDS011;65428;53.194;6.132;2023-02-11T02:39:07;34.83;;;18.27;;
76566;SDS011;65428;53.194;6.132;2023-02-11T02:41:37;34.38;;;18.80;;
76566;SDS011;65428;53.194;6.132;2023-02-11T02:44:03;34.97;;;19.02;;
76566;SDS011;65428;53.194;6.132;2023-02-11T02:46:31;31.93;;;18.47;;
76566;SDS011;65428;53.194;6.132;2023-02-11T02:48:58;34.73;;;20.37;;
76566;SDS011;65428;53.194;6.132;2023-02-11T02:51:41;38.17;;;20.13;;
76566;SDS011;65428;53.194;6.132;2023-02-11T03:00:06;35.97;;;21.00;;
76566;SDS011;65428;53.194;6.132;2023-02-11T03:02:42;37.20;;;21.70;;
76566;SDS011;65428;53.194;6.132;2023-02-11T03:08:23;37.97;;;22.20;;
76566;SDS011;65428;53.194;6.132;2023-02-11T03:11:02;37.85;;;21.67;;
76566;SDS011;65428;53.194;6.132;2023-02-11T03:13:32;36.83;;;21.58;;
76566;SDS011;65428;53.194;6.132;2023-02-11T03:16:01;36.30;;;21.67;;
76566;SDS011;65428;53.194;6.132;2023-02-11T03:18:32;36.35;;;22.15;;
76566;SDS011;65428;53.194;6.132;2023-02-11T03:21:00;35.97;;;22.20;;
76566;SDS011;65428;53.194;6.132;2023-02-11T03:23:36;35.17;;;22.17;;
76566;SDS011;65428;53.194;6.132;2023-02-11T03:26:22;38.88;;;23.02;;
76566;SDS011;65428;53.194;6.132;2023-02-11T03:34:44;38.17;;;22.60;;
76566;SDS011;65428;53.194;6.132;2023-02-11T03:40:12;36.25;;;23.15;;
76566;SDS011;65428;53.194;6.132;2023-02-11T03:42:48;35.22;;;23.33;;
76566;SDS011;65428;53.194;6.132;2023-02-11T03:45:21;35.58;;;23.80;;
76566;SDS011;65428;53.194;6.132;2023-02-11T03:47:52;37.15;;;23.55;;
76566;SDS011;65428;53.194;6.132;2023-02-11T03:50:22;37.10;;;23.58;;
76566;SDS011;65428;53.194;6.132;2023-02-11T03:52:50;35.17;;;24.05;;
76566;SDS011;65428;53.194;6.132;2023-02-11T03:55:19;37.55;;;23.77;;
76566;SDS011;65428;53.194;6.132;2023-02-11T03:57:47;35.97;;;23.15;;
76566;SDS011;65428;53.194;6.132;2023-02-11T04:00:13;36.97;;;24.25;;
76566;SDS011;65428;53.194;6.132;2023-02-11T04:02:39;36.20;;;23.10;;
76566;SDS011;65428;53.194;6.132;2023-02-11T04:05:06;38.55;;;23.63;;
76566;SDS011;65428;53.194;6.132;2023-02-11T04:07:38;38.30;;;23.25;;
76566;SDS011;65428;53.194;6.132;2023-02-11T04:10:04;38.28;;;24.23;;
76566;SDS011;65428;53.194;6.132;2023-02-11T04:12:30;36.60;;;23.05;;
76566;SDS011;65428;53.194;6.132;2023-02-11T04:14:56;33.97;;;22.63;;
76566;SDS011;65428;53.194;6.132;2023-02-11T04:17:21;34.28;;;22.75;;
76566;SDS011;65428;53.194;6.132;2023-02-11T04:19:47;35.42;;;22.67;;
76566;SDS011;65428;53.194;6.132;2023-02-11T04:22:13;37.90;;;22.77;;
76566;SDS011;65428;53.194;6.132;2023-02-11T04:24:39;39.43;;;23.63;;
76566;SDS011;65428;53.194;6.132;2023-02-11T04:27:04;37.53;;;23.80;;
76566;SDS011;65428;53.194;6.132;2023-02-11T04:29:30;38.38;;;23.67;;
76566;SDS011;65428;53.194;6.132;2023-02-11T04:31:56;34.53;;;22.93;;
76566;SDS011;65428;53.194;6.132;2023-02-11T04:34:22;38.92;;;23.95;;
76566;SDS011;65428;53.194;6.132;2023-02-11T04:36:48;37.75;;;23.88;;
76566;SDS011;65428;53.194;6.132;2023-02-11T04:39:14;36.72;;;24.10;;
76566;SDS011;65428;53.194;6.132;2023-02-11T04:41:40;37.95;;;23.83;;
76566;SDS011;65428;53.194;6.132;2023-02-11T04:44:06;36.17;;;24.25;;
76566;SDS011;65428;53.194;6.132;2023-02-11T04:46:32;39.57;;;24.87;;
76566;SDS011;65428;53.194;6.132;2023-02-11T04:48:57;34.60;;;24.07;;
76566;SDS011;65428;53.194;6.132;2023-02-11T04:51:23;38.97;;;23.83;;
76566;SDS011;65428;53.194;6.132;2023-02-11T04:53:49;38.03;;;22.92;;
76566;SDS011;65428;53.194;6.132;2023-02-11T04:56:14;35.90;;;23.10;;
76566;SDS011;65428;53.194;6.132;2023-02-11T04:58:40;31.42;;;22.85;;
76566;SDS011;65428;53.194;6.132;2023-02-11T05:01:09;36.47;;;22.50;;
76566;SDS011;65428;53.194;6.132;2023-02-11T05:03:36;35.47;;;22.33;;
76566;SDS011;65428;53.194;6.132;2023-02-11T05:06:02;32.80;;;21.77;;
76566;SDS011;65428;53.194;6.132;2023-02-11T05:08:28;32.67;;;21.90;;
76566;SDS011;65428;53.194;6.132;2023-02-11T05:10:54;33.53;;;22.03;;
76566;SDS011;65428;53.194;6.132;2023-02-11T05:13:20;34.42;;;21.45;;
76566;SDS011;65428;53.194;6.132;2023-02-11T05:15:46;31.15;;;20.67;;
76566;SDS011;65428;53.194;6.132;2023-02-11T05:18:11;29.88;;;20.70;;
76566;SDS011;65428;53.194;6.132;2023-02-11T05:20:39;33.53;;;22.23;;
76566;SDS011;65428;53.194;6.132;2023-02-11T05:23:05;34.57;;;21.73;;
76566;SDS011;65428;53.194;6.132;2023-02-11T05:25:31;34.03;;;21.27;;
76566;SDS011;65428;53.194;6.132;2023-02-11T05:27:57;31.17;;;20.77;;
76566;SDS011;65428;53.194;6.132;2023-02-11T05:30:22;32.53;;;21.15;;
76566;SDS011;65428;53.194;6.132;2023-02-11T05:32:48;31.50;;;20.63;;
76566;SDS011;65428;53.194;6.132;2023-02-11T05:35:14;31.93;;;20.63;;
76566;SDS011;65428;53.194;6.132;2023-02-11T05:37:39;30.13;;;20.40;;
76566;SDS011;65428;53.194;6.132;2023-02-11T05:40:05;32.40;;;20.85;;
76566;SDS011;65428;53.194;6.132;2023-02-11T05:42:31;30.57;;;19.67;;
76566;SDS011;65428;53.194;6.132;2023-02-11T05:44:56;29.63;;;19.77;;
76566;SDS011;65428;53.194;6.132;2023-02-11T05:47:22;29.88;;;20.23;;
76566;SDS011;65428;53.194;6.132;2023-02-11T05:49:48;31.50;;;19.47;;
76566;SDS011;65428;53.194;6.132;2023-02-11T05:52:14;32.55;;;20.75;;
76566;SDS011;65428;53.194;6.132;2023-02-11T05:54:39;33.07;;;20.73;;
76566;SDS011;65428;53.194;6.132;2023-02-11T05:57:05;32.17;;;20.77;;
76566;SDS011;65428;53.194;6.132;2023-02-11T05:59:30;30.80;;;20.43;;
76566;SDS011;65428;53.194;6.132;2023-02-11T06:01:56;35.00;;;20.77;;
76566;SDS011;65428;53.194;6.132;2023-02-11T06:04:22;34.55;;;21.08;;
76566;SDS011;65428;53.194;6.132;2023-02-11T06:06:47;29.73;;;20.03;;
76566;SDS011;65428;53.194;6.132;2023-02-11T06:09:13;30.53;;;20.70;;
76566;SDS011;65428;53.194;6.132;2023-02-11T06:11:38;32.35;;;21.05;;
76566;SDS011;65428;53.194;6.132;2023-02-11T06:14:04;30.07;;;21.20;;
76566;SDS011;65428;53.194;6.132;2023-02-11T06:16:30;28.92;;;20.48;;
76566;SDS011;65428;53.194;6.132;2023-02-11T06:18:55;36.17;;;22.50;;
76566;SDS011;65428;53.194;6.132;2023-02-11T06:21:21;33.23;;;22.43;;
76566;SDS011;65428;53.194;6.132;2023-02-11T06:23:46;33.15;;;22.27;;
76566;SDS011;65428;53.194;6.132;2023-02-11T06:26:22;31.17;;;21.95;;
76566;SDS011;65428;53.194;6.132;2023-02-11T06:28:48;35.45;;;22.50;;
76566;SDS011;65428;53.194;6.132;2023-02-11T06:31:13;33.97;;;22.50;;
76566;SDS011;65428;53.194;6.132;2023-02-11T06:33:40;31.60;;;22.33;;
76566;SDS011;65428;53.194;6.132;2023-02-11T06:36:16;35.70;;;22.85;;
76566;SDS011;65428;53.194;6.132;2023-02-11T06:38:43;36.45;;;24.00;;
76566;SDS011;65428;53.194;6.132;2023-02-11T06:41:09;35.92;;;23.17;;
76566;SDS011;65428;53.194;6.132;2023-02-11T06:43:36;34.58;;;23.25;;
76566;SDS011;65428;53.194;6.132;2023-02-11T06:46:01;36.53;;;23.70;;
76566;SDS011;65428;53.194;6.132;2023-02-11T06:48:27;34.33;;;22.25;;
76566;SDS011;65428;53.194;6.132;2023-02-11T06:50:53;35.53;;;22.92;;
76566;SDS011;65428;53.194;6.132;2023-02-11T06:53:18;34.13;;;22.37;;
76566;SDS011;65428;53.194;6.132;2023-02-11T06:55:44;32.93;;;23.73;;
76566;SDS011;65428;53.194;6.132;2023-02-11T06:58:10;36.42;;;23.13;;
76566;SDS011;65428;53.194;6.132;2023-02-11T07:00:36;37.15;;;23.00;;
76566;SDS011;65428;53.194;6.132;2023-02-11T07:03:01;35.05;;;22.90;;
76566;SDS011;65428;53.194;6.132;2023-02-11T07:05:27;34.00;;;23.27;;
76566;SDS011;65428;53.194;6.132;2023-02-11T07:07:53;36.00;;;24.00;;
76566;SDS011;65428;53.194;6.132;2023-02-11T07:10:18;40.85;;;24.38;;
76566;SDS011;65428;53.194;6.132;2023-02-11T07:12:44;35.63;;;22.73;;
76566;SDS011;65428;53.194;6.132;2023-02-11T07:15:10;34.27;;;21.90;;
76566;SDS011;65428;53.194;6.132;2023-02-11T07:17:36;33.25;;;21.45;;
76566;SDS011;65428;53.194;6.132;2023-02-11T07:20:02;33.75;;;22.20;;
76566;SDS011;65428;53.194;6.132;2023-02-11T07:22:28;34.50;;;22.45;;
76566;SDS011;65428;53.194;6.132;2023-02-11T07:24:53;33.78;;;22.38;;
76566;SDS011;65428;53.194;6.132;2023-02-11T07:27:19;34.60;;;22.10;;
76566;SDS011;65428;53.194;6.132;2023-02-11T07:29:45;32.93;;;21.83;;
76566;SDS011;65428;53.194;6.132;2023-02-11T07:32:11;31.58;;;20.88;;
76566;SDS011;65428;53.194;6.132;2023-02-11T07:34:37;33.67;;;21.27;;
76566;SDS011;65428;53.194;6.132;2023-02-11T07:37:03;33.63;;;22.10;;
76566;SDS011;65428;53.194;6.132;2023-02-11T07:39:29;34.83;;;21.60;;
76566;SDS011;65428;53.194;6.132;2023-02-11T07:41:54;32.70;;;20.83;;
76566;SDS011;65428;53.194;6.132;2023-02-11T07:44:20;32.33;;;21.60;;
76566;SDS011;65428;53.194;6.132;2023-02-11T07:46:46;33.47;;;21.40;;
76566;SDS011;65428;53.194;6.132;2023-02-11T07:49:13;31.10;;;20.58;;
76566;SDS011;65428;53.194;6.132;2023-02-11T07:51:39;32.38;;;21.10;;
76566;SDS011;65428;53.194;6.132;2023-02-11T07:54:05;37.25;;;21.60;;
76566;SDS011;65428;53.194;6.132;2023-02-11T07:56:31;35.97;;;21.30;;
76566;SDS011;65428;53.194;6.132;2023-02-11T07:58:58;32.70;;;20.60;;
76566;SDS011;65428;53.194;6.132;2023-02-11T08:01:25;33.35;;;19.90;;
76566;SDS011;65428;53.194;6.132;2023-02-11T08:03:53;31.13;;;20.40;;
76566;SDS011;65428;53.194;6.132;2023-02-11T08:06:21;33.80;;;20.10;;
76566;SDS011;65428;53.194;6.132;2023-02-11T08:08:48;32.50;;;20.10;;
76566;SDS011;65428;53.194;6.132;2023-02-11T08:11:15;32.20;;;19.98;;
76566;SDS011;65428;53.194;6.132;2023-02-11T08:13:42;34.47;;;20.33;;
76566;SDS011;65428;53.194;6.132;2023-02-11T08:16:16;30.67;;;19.30;;
76566;SDS011;65428;53.194;6.132;2023-02-11T08:18:42;31.17;;;19.33;;
76566;SDS011;65428;53.194;6.132;2023-02-11T08:21:07;32.40;;;19.63;;
76566;SDS011;65428;53.194;6.132;2023-02-11T08:23:37;32.33;;;19.10;;
76566;SDS011;65428;53.194;6.132;2023-02-11T08:26:05;29.60;;;18.33;;
76566;SDS011;65428;53.194;6.132;2023-02-11T08:28:36;30.48;;;18.15;;
76566;SDS011;65428;53.194;6.132;2023-02-11T08:31:06;29.75;;;17.40;;
76566;SDS011;65428;53.194;6.132;2023-02-11T08:33:40;29.80;;;16.87;;
76566;SDS011;65428;53.194;6.132;2023-02-11T08:36:10;27.53;;;16.50;;
76566;SDS011;65428;53.194;6.132;2023-02-11T08:38:40;26.35;;;15.38;;
76566;SDS011;65428;53.194;6.132;2023-02-11T08:41:06;25.90;;;15.20;;
76566;SDS011;65428;53.194;6.132;2023-02-11T08:43:32;25.48;;;14.43;;
76566;SDS011;65428;53.194;6.132;2023-02-11T08:45:59;24.37;;;13.70;;
76566;SDS011;65428;53.194;6.132;2023-02-11T08:48:25;22.02;;;13.48;;
76566;SDS011;65428;53.194;6.132;2023-02-11T08:50:52;24.63;;;13.68;;
76566;SDS011;65428;53.194;6.132;2023-02-11T08:53:21;25.10;;;12.95;;
76566;SDS011;65428;53.194;6.132;2023-02-11T08:55:51;21.13;;;13.00;;
76566;SDS011;65428;53.194;6.132;2023-02-11T08:58:19;24.57;;;14.10;;
76566;SDS011;65428;53.194;6.132;2023-02-11T09:00:45;25.73;;;14.15;;
76566;SDS011;65428;53.194;6.132;2023-02-11T09:03:12;27.92;;;17.45;;
76566;SDS011;65428;53.194;6.132;2023-02-11T09:05:42;45.25;;;29.50;;
76566;SDS011;65428;53.194;6.132;2023-02-11T09:08:08;20.92;;;11.63;;
76566;SDS011;65428;53.194;6.132;2023-02-11T09:10:34;29.48;;;17.98;;
76566;SDS011;65428;53.194;6.132;2023-02-11T09:13:00;19.47;;;11.10;;
76566;SDS011;65428;53.194;6.132;2023-02-11T09:15:26;20.17;;;11.17;;
76566;SDS011;65428;53.194;6.132;2023-02-11T09:17:51;20.63;;;11.45;;
76566;SDS011;65428;53.194;6.132;2023-02-11T09:20:17;20.67;;;10.60;;
76566;SDS011;65428;53.194;6.132;2023-02-11T09:22:43;19.87;;;10.70;;
76566;SDS011;65428;53.194;6.132;2023-02-11T09:25:09;19.13;;;10.30;;
76566;SDS011;65428;53.194;6.132;2023-02-11T09:27:35;20.38;;;10.15;;
76566;SDS011;65428;53.194;6.132;2023-02-11T09:30:01;16.58;;;10.05;;
76566;SDS011;65428;53.194;6.132;2023-02-11T09:32:26;15.73;;;9.32;;
76566;SDS011;65428;53.194;6.132;2023-02-11T09:34:52;20.55;;;9.27;;
76566;SDS011;65428;53.194;6.132;2023-02-11T09:37:17;19.67;;;9.73;;
76566;SDS011;65428;53.194;6.132;2023-02-11T09:39:43;15.15;;;8.90;;
76566;SDS011;65428;53.194;6.132;2023-02-11T09:45:02;17.17;;;7.95;;
76566;SDS011;65428;53.194;6.132;2023-02-11T09:47:37;21.23;;;8.32;;
76566;SDS011;65428;53.194;6.132;2023-02-11T09:50:16;16.90;;;8.35;;
76566;SDS011;65428;53.194;6.132;2023-02-11T09:52:51;13.25;;;7.80;;
76566;SDS011;65428;53.194;6.132;2023-02-11T09:55:24;15.93;;;6.95;;
76566;SDS011;65428;53.194;6.132;2023-02-11T09:57:50;14.40;;;7.00;;
76566;SDS011;65428;53.194;6.132;2023-02-11T10:03:52;15.23;;;7.20;;
76566;SDS011;65428;53.194;6.132;2023-02-11T10:07:01;15.23;;;6.32;;
76566;SDS011;65428;53.194;6.132;2023-02-11T10:23:15;16.55;;;6.03;;
76566;SDS011;65428;53.194;6.132;2023-02-11T10:25:47;17.10;;;6.18;;
76566;SDS011;65428;53.194;6.132;2023-02-11T10:28:17;16.02;;;5.55;;
76566;SDS011;65428;53.194;6.132;2023-02-11T10:31:00;13.30;;;4.90;;
76566;SDS011;65428;53.194;6.132;2023-02-11T10:33:29;13.77;;;5.15;;
76566;SDS011;65428;53.194;6.132;2023-02-11T10:36:02;16.70;;;5.22;;
76566;SDS011;65428;53.194;6.132;2023-02-11T10:38:28;16.42;;;5.20;;
76566;SDS011;65428;53.194;6.132;2023-02-11T10:40:54;16.60;;;5.32;;
76566;SDS011;65428;53.194;6.132;2023-02-11T10:43:22;12.65;;;4.45;;
76566;SDS011;65428;53.194;6.132;2023-02-11T10:45:51;15.40;;;4.43;;
76566;SDS011;65428;53.194;6.132;2023-02-11T10:53:40;13.15;;;4.15;;
76566;SDS011;65428;53.194;6.132;2023-02-11T10:56:06;15.43;;;4.20;;
76566;SDS011;65428;53.194;6.132;2023-02-11T10:58:55;17.00;;;4.60;;
76566;SDS011;65428;53.194;6.132;2023-02-11T11:04:06;13.98;;;3.70;;
76566;SDS011;65428;53.194;6.132;2023-02-11T11:06:49;13.30;;;3.75;;
76566;SDS011;65428;53.194;6.132;2023-02-11T11:09:28;12.50;;;3.50;;
76566;SDS011;65428;53.194;6.132;2023-02-11T11:11:54;13.98;;;3.88;;
76566;SDS011;65428;53.194;6.132;2023-02-11T11:14:20;11.85;;;3.92;;
76566;SDS011;65428;53.194;6.132;2023-02-11T11:16:53;12.93;;;3.67;;
76566;SDS011;65428;53.194;6.132;2023-02-11T11:19:23;15.38;;;4.22;;
76566;SDS011;65428;53.194;6.132;2023-02-11T11:21:50;14.73;;;3.92;;
76566;SDS011;65428;53.194;6.132;2023-02-11T11:26:48;12.90;;;2.90;;
76566;SDS011;65428;53.194;6.132;2023-02-11T11:29:25;11.07;;;2.47;;
76566;SDS011;65428;53.194;6.132;2023-02-11T11:31:57;10.90;;;2.38;;
76566;SDS011;65428;53.194;6.132;2023-02-11T11:34:26;11.68;;;2.30;;
76566;SDS011;65428;53.194;6.132;2023-02-11T11:36:53;11.53;;;2.40;;
76566;SDS011;65428;53.194;6.132;2023-02-11T11:39:22;11.93;;;2.25;;
76566;SDS011;65428;53.194;6.132;2023-02-11T11:41:56;9.18;;;2.20;;
76566;SDS011;65428;53.194;6.132;2023-02-11T11:44:25;11.50;;;2.00;;
76566;SDS011;65428;53.194;6.132;2023-02-11T11:47:04;13.07;;;2.45;;
76566;SDS011;65428;53.194;6.132;2023-02-11T11:49:38;10.50;;;2.10;;
76566;SDS011;65428;53.194;6.132;2023-02-11T11:55:12;9.25;;;1.75;;
76566;SDS011;65428;53.194;6.132;2023-02-11T11:57:46;12.10;;;2.10;;
76566;SDS011;65428;53.194;6.132;2023-02-11T12:00:16;11.90;;;2.05;;
76566;SDS011;65428;53.194;6.132;2023-02-11T12:15:50;9.57;;;1.65;;
76566;SDS011;65428;53.194;6.132;2023-02-11T12:24:18;9.32;;;1.25;;
76566;SDS011;65428;53.194;6.132;2023-02-11T12:27:21;9.80;;;1.42;;
76566;SDS011;65428;53.194;6.132;2023-02-11T12:32:34;9.90;;;1.70;;
76566;SDS011;65428;53.194;6.132;2023-02-11T12:40:32;8.05;;;1.35;;
76566;SDS011;65428;53.194;6.132;2023-02-11T12:43:16;10.90;;;1.55;;
76566;SDS011;65428;53.194;6.132;2023-02-11T12:51:38;12.48;;;1.63;;
76566;SDS011;65428;53.194;6.132;2023-02-11T12:54:17;11.77;;;1.50;;
76566;SDS011;65428;53.194;6.132;2023-02-11T12:56:53;12.05;;;2.03;;
76566;SDS011;65428;53.194;6.132;2023-02-11T12:59:33;11.55;;;1.13;;
76566;SDS011;65428;53.194;6.132;2023-02-11T13:04:55;10.18;;;1.70;;
76566;SDS011;65428;53.194;6.132;2023-02-11T13:07:31;8.18;;;1.40;;
76566;SDS011;65428;53.194;6.132;2023-02-11T13:10:17;10.48;;;1.13;;
76566;SDS011;65428;53.194;6.132;2023-02-11T13:13:01;10.18;;;1.35;;
76566;SDS011;65428;53.194;6.132;2023-02-11T13:15:50;9.43;;;1.17;;
76566;SDS011;65428;53.194;6.132;2023-02-11T13:18:23;9.35;;;1.00;;
76566;SDS011;65428;53.194;6.132;2023-02-11T13:23:43;8.25;;;1.08;;
76566;SDS011;65428;53.194;6.132;2023-02-11T13:26:39;9.57;;;1.15;;
76566;SDS011;65428;53.194;6.132;2023-02-11T13:31:43;11.70;;;1.60;;
76566;SDS011;65428;53.194;6.132;2023-02-11T13:37:23;10.48;;;1.48;;
76566;SDS011;65428;53.194;6.132;2023-02-11T13:39:56;9.65;;;1.30;;
76566;SDS011;65428;53.194;6.132;2023-02-11T13:42:31;9.27;;;1.40;;
76566;SDS011;65428;53.194;6.132;2023-02-11T13:45:16;12.40;;;1.45;;
76566;SDS011;65428;53.194;6.132;2023-02-11T13:47:47;10.63;;;1.13;;
76566;SDS011;65428;53.194;6.132;2023-02-11T13:50:20;9.75;;;1.48;;
76566;SDS011;65428;53.194;6.132;2023-02-11T13:52:54;9.02;;;1.30;;
76566;SDS011;65428;53.194;6.132;2023-02-11T13:55:23;9.07;;;1.38;;
76566;SDS011;65428;53.194;6.132;2023-02-11T14:03:16;10.27;;;1.57;;
76566;SDS011;65428;53.194;6.132;2023-02-11T14:09:08;9.98;;;1.02;;
76566;SDS011;65428;53.194;6.132;2023-02-11T14:41:05;9.65;;;1.50;;
76566;SDS011;65428;53.194;6.132;2023-02-11T14:43:44;11.38;;;1.60;;
76566;SDS011;65428;53.194;6.132;2023-02-11T14:46:15;8.80;;;1.30;;
76566;SDS011;65428;53.194;6.132;2023-02-11T14:48:44;8.63;;;1.17;;
76566;SDS011;65428;53.194;6.132;2023-02-11T14:51:12;10.98;;;1.50;;
76566;SDS011;65428;53.194;6.132;2023-02-11T14:53:51;8.13;;;1.30;;
76566;SDS011;65428;53.194;6.132;2023-02-11T14:56:23;10.00;;;1.10;;
76566;SDS011;65428;53.194;6.132;2023-02-11T14:58:51;9.65;;;1.20;;
76566;SDS011;65428;53.194;6.132;2023-02-11T15:01:25;9.73;;;1.20;;
76566;SDS011;65428;53.194;6.132;2023-02-11T15:03:56;11.93;;;1.52;;
76566;SDS011;65428;53.194;6.132;2023-02-11T15:06:25;12.18;;;1.80;;
76566;SDS011;65428;53.194;6.132;2023-02-11T15:09:01;11.45;;;1.48;;
76566;SDS011;65428;53.194;6.132;2023-02-11T15:11:31;13.05;;;1.58;;
76566;SDS011;65428;53.194;6.132;2023-02-11T15:14:09;11.45;;;1.20;;
76566;SDS011;65428;53.194;6.132;2023-02-11T15:16:44;9.67;;;1.40;;
76566;SDS011;65428;53.194;6.132;2023-02-11T15:19:22;7.35;;;1.25;;
76566;SDS011;65428;53.194;6.132;2023-02-11T15:21:57;10.55;;;1.25;;
76566;SDS011;65428;53.194;6.132;2023-02-11T15:24:25;11.43;;;2.17;;
76566;SDS011;65428;53.194;6.132;2023-02-11T15:27:00;9.90;;;1.20;;
76566;SDS011;65428;53.194;6.132;2023-02-11T15:29:36;11.60;;;1.30;;
76566;SDS011;65428;53.194;6.132;2023-02-11T15:34:34;10.23;;;1.35;;
76566;SDS011;65428;53.194;6.132;2023-02-11T15:37:01;13.73;;;1.48;;
76566;SDS011;65428;53.194;6.132;2023-02-11T15:39:30;12.20;;;1.50;;
76566;SDS011;65428;53.194;6.132;2023-02-11T15:44:43;10.43;;;1.73;;
76566;SDS011;65428;53.194;6.132;2023-02-11T15:47:09;13.10;;;2.00;;
76566;SDS011;65428;53.194;6.132;2023-02-11T15:49:36;12.57;;;2.17;;
76566;SDS011;65428;53.194;6.132;2023-02-11T15:52:02;13.80;;;1.93;;
76566;SDS011;65428;53.194;6.132;2023-02-11T15:54:28;13.38;;;1.83;;
76566;SDS011;65428;53.194;6.132;2023-02-11T15:57:01;13.23;;;1.90;;
76566;SDS011;65428;53.194;6.132;2023-02-11T16:02:04;13.20;;;1.40;;
76566;SDS011;65428;53.194;6.132;2023-02-11T16:04:33;12.68;;;1.70;;
76566;SDS011;65428;53.194;6.132;2023-02-11T16:07:00;12.93;;;2.05;;
76566;SDS011;65428;53.194;6.132;2023-02-11T16:09:31;11.88;;;1.20;;
76566;SDS011;65428;53.194;6.132;2023-02-11T16:12:00;10.77;;;1.73;;
76566;SDS011;65428;53.194;6.132;2023-02-11T16:14:53;11.48;;;1.60;;
76566;SDS011;65428;53.194;6.132;2023-02-11T16:17:24;8.90;;;1.23;;
76566;SDS011;65428;53.194;6.132;2023-02-11T16:19:52;12.80;;;2.03;;
76566;SDS011;65428;53.194;6.132;2023-02-11T16:22:26;13.43;;;1.45;;
76566;SDS011;65428;53.194;6.132;2023-02-11T16:24:56;17.08;;;2.10;;
76566;SDS011;65428;53.194;6.132;2023-02-11T16:27:24;14.52;;;1.65;;
76566;SDS011;65428;53.194;6.132;2023-02-11T16:29:58;15.90;;;1.85;;
76566;SDS011;65428;53.194;6.132;2023-02-11T16:32:26;14.40;;;1.40;;
76566;SDS011;65428;53.194;6.132;2023-02-11T16:34:53;12.38;;;1.50;;
76566;SDS011;65428;53.194;6.132;2023-02-11T16:37:22;14.48;;;2.00;;
76566;SDS011;65428;53.194;6.132;2023-02-11T16:39:49;11.15;;;1.45;;
76566;SDS011;65428;53.194;6.132;2023-02-11T16:42:18;13.83;;;1.90;;
76566;SDS011;65428;53.194;6.132;2023-02-11T16:44:44;14.87;;;1.60;;
76566;SDS011;65428;53.194;6.132;2023-02-11T16:47:16;15.57;;;2.03;;
76566;SDS011;65428;53.194;6.132;2023-02-11T16:49:46;13.63;;;2.05;;
76566;SDS011;65428;53.194;6.132;2023-02-11T16:52:13;13.60;;;1.58;;
76566;SDS011;65428;53.194;6.132;2023-02-11T16:54:40;15.43;;;2.17;;
76566;SDS011;65428;53.194;6.132;2023-02-11T16:57:13;13.40;;;2.10;;
76566;SDS011;65428;53.194;6.132;2023-02-11T16:59:46;15.82;;;2.35;;
76566;SDS011;65428;53.194;6.132;2023-02-11T17:02:23;13.10;;;2.60;;
76566;SDS011;65428;53.194;6.132;2023-02-11T17:04:55;11.90;;;1.67;;
76566;SDS011;65428;53.194;6.132;2023-02-11T17:07:23;16.50;;;2.65;;
76566;SDS011;65428;53.194;6.132;2023-02-11T17:09:49;13.57;;;2.00;;
76566;SDS011;65428;53.194;6.132;2023-02-11T17:12:18;13.15;;;2.22;;
76566;SDS011;65428;53.194;6.132;2023-02-11T17:14:44;16.50;;;2.50;;
76566;SDS011;65428;53.194;6.132;2023-02-11T17:17:10;14.00;;;2.40;;